Time;durP1;ratioP1;P1;durP2;ratioP2;P2;SDS_P1;SDS_P2;PMS_P1;PMS_P2;Temp;Humidity;BMP_temperature;BMP_pressure;BME280_temperature;BME280_humidity;BME280_pressure;Samples;Min_cycle;Max_cycle;Signal;HPM_P1;HPM_P2
2022/10/01 00:00:32;;;;;;;;;;;;;;;-142.75;100.00;76373.44;5006261;28;19917;-66
2022/10/01 00:02:57;;;;;;;;;;;;;;;-142.75;100.00;76391.16;4992590;28;19918;-66
2022/10/01 00:05:23;;;;;;;;;;;;;;;-142.75;100.00;76389.19;5012246;28;19936;-65
2022/10/01 00:07:48;;;;;;;;;;;;;;;-142.75;100.00;76375.41;5011959;28;19914;-67
2022/10/01 00:10:14;;;;;;;;;;;;;;;-142.75;100.00;76381.31;5012178;28;19960;-66
2022/10/01 00:12:44;;;;;;;;;;;;;;;-142.75;100.00;76373.44;5012229;28;19914;-67
2022/10/01 00:15:10;;;;;;;;;;;;;;;-142.75;100.00;76367.53;5012191;28;20387;-67
2022/10/01 00:17:35;;;;;;;;;;;;;;;-142.75;100.00;76338.03;5011808;28;20056;-65
2022/10/01 00:20:01;;;;;;;;;;;;;;;-142.75;100.00;76328.19;5013294;28;19913;-65
2022/10/01 00:22:28;;;;;;;;;;;;;;;-142.75;100.00;76308.50;5015856;28;19924;-65
2022/10/01 00:24:53;;;;;;;;;;;;;;;-142.75;100.00;76302.59;5015860;28;20426;-66
2022/10/01 00:27:18;;;;;;;;;;;;;;;-142.75;100.00;76300.63;5015590;28;19964;-66
2022/10/01 00:29:44;;;;;;;;;;;;;;;-142.75;100.00;76292.75;5014331;28;19925;-66
2022/10/01 00:32:09;;;;;;;;;;;;;;;-142.75;100.00;76282.91;5015663;28;20008;-68
2022/10/01 00:34:34;;;;;;;;;;;;;;;-142.75;100.00;76278.97;5014420;28;19945;-66
2022/10/01 00:36:59;;;;;;;;;;;;;;;-142.75;100.00;76278.97;5015389;28;20286;-67
2022/10/01 00:39:25;;;;;;;;;;;;;;;-142.75;100.00;76265.19;5015699;28;19960;-66
2022/10/01 00:41:51;;;;;;;;;;;;;;;-142.75;100.00;76284.88;5015525;28;19920;-66
2022/10/01 00:44:28;;;;;;;;;;;;;;;-142.75;100.00;76255.34;5015534;28;20430;-67
2022/10/01 00:46:55;;;;;;;;;;;;;;;-142.75;100.00;76263.22;5015148;28;19960;-66
2022/10/01 00:49:23;;;;;;;;;;;;;;;-142.75;100.00;76257.31;5015366;28;20011;-67
2022/10/01 00:51:50;;;;;;;;;;;;;;;-142.75;100.00;76278.97;5015393;28;19920;-66
2022/10/01 00:54:21;;;;;;;;;;;;;;;-142.75;100.00;76255.34;5015363;28;19924;-66
2022/10/01 00:56:48;;;;;;;;;;;;;;;-142.75;100.00;76261.25;5015046;28;20012;-66
2022/10/01 00:59:15;;;;;;;;;;;;;;;-142.75;100.00;76271.09;5013713;28;19914;-66
2022/10/01 01:01:40;;;;;;;;;;;;;;;-142.75;100.00;76257.31;5015278;28;19914;-67
2022/10/01 01:04:15;;;;;;;;;;;;;;;-142.75;100.00;76259.28;5015121;28;20407;-67
2022/10/01 01:06:45;;;;;;;;;;;;;;;-142.75;100.00;76247.47;5014877;28;19917;-67
2022/10/01 01:09:10;;;;;;;;;;;;;;;-142.75;100.00;76241.56;5013895;28;20343;-66
2022/10/01 01:11:47;;;;;;;;;;;;;;;-142.75;100.00;76217.94;5014939;28;19956;-66
2022/10/01 01:14:22;;;;;;;;;;;;;;;-142.75;100.00;76196.31;5015046;28;19913;-66
2022/10/01 01:16:54;;;;;;;;;;;;;;;-142.75;100.00;76214.00;5014652;28;19920;-66
2022/10/01 01:19:30;;;;;;;;;;;;;;;-142.75;100.00;76196.31;5014810;28;19913;-66
2022/10/01 01:21:59;;;;;;;;;;;;;;;-142.75;100.00;76186.47;5013552;28;19921;-66
2022/10/01 01:24:44;;;;;;;;;;;;;;;-142.75;100.00;76186.47;5013439;28;20407;-66
2022/10/01 01:27:36;;;;;;;;;;;;;;;-142.75;100.00;76172.69;5014642;28;19910;-66
2022/10/01 01:30:09;;;;;;;;;;;;;;;-142.75;100.00;76156.94;5014408;28;20320;-66
2022/10/01 01:32:58;;;;;;;;;;;;;;;-142.75;100.00;76200.25;5013512;28;19913;-68
2022/10/01 01:35:26;;;;;;;;;;;;;;;-142.75;100.00;76176.63;5013444;28;20022;-67
2022/10/01 01:37:55;;;;;;;;;;;;;;;-142.75;100.00;76172.69;5014319;28;19975;-67
2022/10/01 01:40:21;;;;;;;;;;;;;;;-142.75;100.00;76129.38;5014489;28;19921;-68
2022/10/01 01:42:47;;;;;;;;;;;;;;;-142.75;100.00;76143.16;5013177;28;19917;-68
2022/10/01 01:45:16;;;;;;;;;;;;;;;-142.75;100.00;76172.69;5014377;28;19971;-68
2022/10/01 01:47:42;;;;;;;;;;;;;;;-142.75;100.00;76156.94;5014087;28;20008;-67
2022/10/01 01:50:09;;;;;;;;;;;;;;;-142.75;100.00;76151.03;5014297;28;20055;-68
2022/10/01 01:52:34;;;;;;;;;;;;;;;-142.75;100.00;76139.22;5014337;28;19921;-68
2022/10/01 01:55:04;;;;;;;;;;;;;;;-142.75;100.00;76137.25;5013001;28;19913;-69
2022/10/01 01:57:29;;;;;;;;;;;;;;;-142.75;100.00;76131.34;5013839;28;19920;-67
2022/10/01 01:59:54;;;;;;;;;;;;;;;-142.75;100.00;76113.63;5037581;23;19925;-67
2022/10/01 02:02:23;;;;;;;;;;;;;;;-142.75;100.00;76109.69;5031087;28;20394;-67
2022/10/01 02:04:54;;;;;;;;;;;;;;;-142.75;100.00;76117.56;5033063;28;19944;-67
2022/10/01 02:07:19;;;;;;;;;;;;;;;-142.75;100.00;76117.56;5033593;28;20382;-67
2022/10/01 02:09:45;;;;;;;;;;;;;;;-142.75;100.00;76117.56;5033654;28;19913;-67
2022/10/01 02:12:17;;;;;;;;;;;;;;;-142.75;100.00;76105.75;5032378;28;19920;-65
2022/10/01 02:14:53;;;;;;;;;;;;;;;-142.75;100.00;76097.88;5033649;28;19920;-67
2022/10/01 02:17:31;;;;;;;;;;;;;;;-142.75;100.00;76086.06;5033317;28;19991;-67
2022/10/01 02:20:02;;;;;;;;;;;;;;;-142.75;100.00;76097.88;5032551;28;19928;-67
2022/10/01 02:22:27;;;;;;;;;;;;;;;-142.75;100.00;76103.78;5032088;28;19967;-67
2022/10/01 02:24:58;;;;;;;;;;;;;;;-142.75;100.00;76095.91;5033484;28;19913;-67
2022/10/01 02:27:31;;;;;;;;;;;;;;;-142.75;100.00;76097.88;5033242;28;20302;-67
2022/10/01 02:29:58;;;;;;;;;;;;;;;-142.75;100.00;76095.91;5031998;28;19960;-66
2022/10/01 02:32:25;;;;;;;;;;;;;;;-142.75;100.00;76082.13;5033288;28;19913;-67
2022/10/01 02:34:51;;;;;;;;;;;;;;;-142.75;100.00;76101.81;5033335;28;19919;-67
2022/10/01 02:37:20;;;;;;;;;;;;;;;-142.75;100.00;76086.06;5032798;28;19956;-67
2022/10/01 02:39:46;;;;;;;;;;;;;;;-142.75;100.00;76090.00;5033146;28;19917;-67
2022/10/01 02:42:13;;;;;;;;;;;;;;;-142.75;100.00;76078.19;5033069;28;20391;-68
2022/10/01 02:44:41;;;;;;;;;;;;;;;-142.75;100.00;76080.16;5032963;28;19944;-65
2022/10/01 02:47:21;;;;;;;;;;;;;;;-142.75;100.00;76068.38;5031403;28;19919;-67
2022/10/01 02:49:48;;;;;;;;;;;;;;;-142.75;100.00;76072.31;5032768;28;19920;-68
2022/10/01 02:52:32;;;;;;;;;;;;;;;-142.75;100.00;76058.53;5032914;28;19917;-67
2022/10/01 02:55:00;;;;;;;;;;;;;;;-142.75;100.00;76050.66;5032876;28;19944;-67
2022/10/01 02:57:26;;;;;;;;;;;;;;;-142.75;100.00;76044.75;5032612;28;20295;-67
2022/10/01 02:59:56;;;;;;;;;;;;;;;-142.75;100.00;76042.78;5032683;28;19920;-68
2022/10/01 03:02:21;;;;;;;;;;;;;;;-142.75;100.00;76050.66;5032637;28;19921;-68
2022/10/01 03:04:47;;;;;;;;;;;;;;;-142.75;100.00;76034.91;5032807;28;19913;-68
2022/10/01 03:07:13;;;;;;;;;;;;;;;-142.75;100.00;76036.88;5032420;28;19917;-67
2022/10/01 03:09:38;;;;;;;;;;;;;;;-142.75;100.00;76034.91;5032660;28;19919;-65
2022/10/01 03:12:05;;;;;;;;;;;;;;;-142.75;100.00;76038.84;5032589;28;19919;-67
2022/10/01 03:14:31;;;;;;;;;;;;;;;-142.75;100.00;76027.03;5032550;28;19913;-67
2022/10/01 03:16:56;;;;;;;;;;;;;;;-142.75;100.00;76030.97;5032127;28;20338;-67
2022/10/01 03:19:21;;;;;;;;;;;;;;;-142.75;100.00;76023.09;5032510;28;19967;-67
2022/10/01 03:21:47;;;;;;;;;;;;;;;-142.75;100.00;76023.09;5032400;28;20012;-67
2022/10/01 03:24:12;;;;;;;;;;;;;;;-142.75;100.00;76015.22;5032491;28;19921;-67
2022/10/01 03:26:37;;;;;;;;;;;;;;;-142.75;100.00;76025.06;5030814;28;20386;-65
2022/10/01 03:29:03;;;;;;;;;;;;;;;-142.75;100.00;76013.25;5032358;28;19917;-67
2022/10/01 03:31:28;;;;;;;;;;;;;;;-142.75;100.00;76011.28;5032138;28;19967;-67
2022/10/01 03:33:53;;;;;;;;;;;;;;;-142.75;100.00;76007.34;5032302;28;19913;-68
2022/10/01 03:36:18;;;;;;;;;;;;;;;-142.75;100.00;76001.44;5032368;28;19920;-67
2022/10/01 03:38:44;;;;;;;;;;;;;;;-142.75;100.00;75999.47;5030692;28;20056;-68
2022/10/01 03:41:09;;;;;;;;;;;;;;;-142.75;100.00;75999.47;5030959;28;20483;-66
2022/10/01 03:43:34;;;;;;;;;;;;;;;-142.75;100.00;75993.56;5032207;28;19927;-67
2022/10/01 03:46:00;;;;;;;;;;;;;;;-142.75;100.00;75995.53;5032175;28;20353;-67
2022/10/01 03:48:26;;;;;;;;;;;;;;;-142.75;100.00;75989.63;5031990;28;19913;-67
2022/10/01 03:50:55;;;;;;;;;;;;;;;-142.75;100.00;75997.50;5032122;28;19935;-68
2022/10/01 03:53:21;;;;;;;;;;;;;;;-142.75;100.00;75991.59;5032119;28;19913;-67
2022/10/01 03:55:46;;;;;;;;;;;;;;;-142.75;100.00;75981.75;5034545;28;19959;-68
2022/10/01 03:58:11;;;;;;;;;;;;;;;-142.75;100.00;75975.84;5034601;28;19913;-68
2022/10/01 04:00:36;;;;;;;;;;;;;;;-142.75;100.00;75977.81;5035815;28;20379;-67
2022/10/01 04:03:02;;;;;;;;;;;;;;;-142.75;100.00;75973.88;5036003;28;19921;-67
2022/10/01 04:05:27;;;;;;;;;;;;;;;-142.75;100.00;75979.78;5034760;28;19981;-67
2022/10/01 04:07:52;;;;;;;;;;;;;;;-142.75;100.00;75975.84;5034450;28;19962;-67
2022/10/01 04:10:17;;;;;;;;;;;;;;;-142.75;100.00;75987.66;5033612;28;19914;-64
2022/10/01 04:12:43;;;;;;;;;;;;;;;-142.75;100.00;75975.84;5031866;28;19917;-67
2022/10/01 04:15:08;;;;;;;;;;;;;;;-142.75;100.00;75973.88;5034006;28;19913;-67
2022/10/01 04:17:34;;;;;;;;;;;;;;;-142.75;100.00;75973.88;5034074;28;19914;-68
2022/10/01 04:20:00;;;;;;;;;;;;;;;-142.75;100.00;75983.72;5035082;28;19994;-67
2022/10/01 04:22:25;;;;;;;;;;;;;;;-142.75;100.00;75983.72;5035574;28;19917;-67
2022/10/01 04:24:52;;;;;;;;;;;;;;;-142.75;100.00;75981.75;5035378;28;19914;-67
2022/10/01 04:27:17;;;;;;;;;;;;;;;-142.75;100.00;75985.69;5034965;28;20406;-68
2022/10/01 04:29:42;;;;;;;;;;;;;;;-142.75;100.00;75979.78;5035408;28;19964;-68
2022/10/01 04:32:08;;;;;;;;;;;;;;;-142.75;100.00;75985.69;5035790;28;19995;-67
2022/10/01 04:34:51;;;;;;;;;;;;;;;-142.75;100.00;75977.81;5034276;28;19913;-68
2022/10/01 04:37:17;;;;;;;;;;;;;;;-142.75;100.00;75991.59;5035201;28;19913;-66
2022/10/01 04:39:42;;;;;;;;;;;;;;;-142.75;100.00;75981.75;5034129;28;19917;-68
2022/10/01 04:42:07;;;;;;;;;;;;;;;-142.75;100.00;75985.69;5033974;28;19913;-67
2022/10/01 04:44:32;;;;;;;;;;;;;;;-142.75;100.00;75983.72;5035285;28;19913;-68
2022/10/01 04:46:57;;;;;;;;;;;;;;;-142.75;100.00;75977.81;5034981;28;19913;-68
2022/10/01 04:49:23;;;;;;;;;;;;;;;-142.75;100.00;75983.72;5035236;28;19961;-68
2022/10/01 04:51:48;;;;;;;;;;;;;;;-142.75;100.00;75993.56;5033820;28;19913;-68
2022/10/01 04:54:13;;;;;;;;;;;;;;;-142.75;100.00;75987.66;5035431;28;19913;-68
2022/10/01 04:56:38;;;;;;;;;;;;;;;-142.75;100.00;75989.63;5034732;28;19975;-68
2022/10/01 04:59:03;;;;;;;;;;;;;;;-142.75;100.00;75983.72;5034985;28;19913;-67
2022/10/01 05:01:31;;;;;;;;;;;;;;;-142.75;100.00;75989.63;5033565;28;19917;-67
2022/10/01 05:03:56;;;;;;;;;;;;;;;-142.75;100.00;76003.41;5033383;28;19927;-66
2022/10/01 05:06:21;;;;;;;;;;;;;;;-142.75;100.00;76005.38;5033520;28;19913;-67
2022/10/01 05:08:47;;;;;;;;;;;;;;;-142.75;100.00;75999.47;5034588;28;19917;-67
2022/10/01 05:11:12;;;;;;;;;;;;;;;-142.75;100.00;75993.56;5034731;28;19924;-68
2022/10/01 05:13:38;;;;;;;;;;;;;;;-142.75;100.00;75999.47;5034698;28;19913;-68
2022/10/01 05:16:03;;;;;;;;;;;;;;;-142.75;100.00;76005.38;5034766;28;19913;-67
2022/10/01 05:18:29;;;;;;;;;;;;;;;-142.75;100.00;76011.28;5034380;28;19913;-68
2022/10/01 05:20:54;;;;;;;;;;;;;;;-142.75;100.00;76003.41;5034588;28;19919;-68
2022/10/01 05:23:19;;;;;;;;;;;;;;;-142.75;100.00;75987.66;5033359;28;19939;-68
2022/10/01 05:25:45;;;;;;;;;;;;;;;-142.75;100.00;75983.72;5033342;28;19913;-68
2022/10/01 05:28:12;;;;;;;;;;;;;;;-142.75;100.00;75983.72;5034444;28;20386;-67
2022/10/01 05:30:37;;;;;;;;;;;;;;;-142.75;100.00;75985.69;5034454;28;19919;-67
2022/10/01 05:33:03;;;;;;;;;;;;;;;-142.75;100.00;75987.66;5034466;28;19995;-68
2022/10/01 05:35:28;;;;;;;;;;;;;;;-142.75;100.00;75985.69;5033167;28;20414;-68
2022/10/01 05:37:54;;;;;;;;;;;;;;;-142.75;100.00;75979.78;5034094;28;19976;-67
2022/10/01 05:40:20;;;;;;;;;;;;;;;-142.75;100.00;75979.78;5034344;28;19920;-68
2022/10/01 05:42:45;;;;;;;;;;;;;;;-142.75;100.00;75973.88;5031366;28;20015;-65
2022/10/01 05:45:11;;;;;;;;;;;;;;;-142.75;100.00;75971.91;5032364;28;19917;-67
2022/10/01 05:47:38;;;;;;;;;;;;;;;-142.75;100.00;75967.97;5012857;28;19920;-68
2022/10/01 05:50:03;;;;;;;;;;;;;;;-142.75;100.00;75969.94;5014303;28;20379;-68
2022/10/01 05:52:28;;;;;;;;;;;;;;;-142.75;100.00;75977.81;5033692;28;19924;-65
2022/10/01 05:54:53;;;;;;;;;;;;;;;-142.75;100.00;75969.94;5034027;28;19921;-67
2022/10/01 05:57:19;;;;;;;;;;;;;;;-142.75;100.00;75971.91;5033657;28;20435;-68
2022/10/01 05:59:44;;;;;;;;;;;;;;;-142.75;100.00;75960.13;5033929;28;19913;-68
2022/10/01 06:02:09;;;;;;;;;;;;;;;-142.75;100.00;75960.13;5033233;28;19924;-68
2022/10/01 06:04:34;;;;;;;;;;;;;;;-142.75;100.00;75969.94;5033835;28;20302;-67
2022/10/01 06:06:59;;;;;;;;;;;;;;;-142.75;100.00;75966.00;5033025;28;19996;-64
2022/10/01 06:09:25;;;;;;;;;;;;;;;-142.75;100.00;75964.03;5033788;28;19920;-66
2022/10/01 06:11:50;;;;;;;;;;;;;;;-142.75;100.00;75966.00;5031903;28;19917;-68
2022/10/01 06:14:15;;;;;;;;;;;;;;;-142.75;100.00;75960.13;5031265;28;19933;-68
2022/10/01 06:16:40;;;;;;;;;;;;;;;-142.75;100.00;75962.09;5032601;28;19959;-68
2022/10/01 06:19:06;;;;;;;;;;;;;;;-142.75;100.00;75950.28;5028567;28;19925;-68
2022/10/01 06:21:31;;;;;;;;;;;;;;;-142.75;100.00;75932.56;5018548;28;21138;-67
2022/10/01 06:23:56;;;;;;;;;;;;;;;-142.75;100.00;75922.72;5028326;28;20371;-66
2022/10/01 06:26:21;;;;;;;;;;;;;;;-142.75;100.00;75924.69;5031507;28;19919;-68
2022/10/01 06:28:51;;;;;;;;;;;;;;;-142.75;100.00;75873.50;5027030;28;19924;-68
2022/10/01 06:31:17;;;;;;;;;;;;;;;-142.75;100.00;75855.81;5017037;28;19917;-68
2022/10/01 06:33:42;;;;;;;;;;;;;;;-142.75;100.00;75849.91;5014415;28;20032;-67
2022/10/01 06:36:07;;;;;;;;;;;;;;;-142.75;100.00;75844.00;5015279;28;19925;-68
2022/10/01 06:38:33;;;;;;;;;;;;;;;-142.75;100.00;75844.00;5017745;28;20000;-69
2022/10/01 06:40:59;;;;;;;;;;;;;;;-142.75;100.00;75838.09;5027322;28;19924;-68
2022/10/01 06:43:25;;;;;;;;;;;;;;;-142.75;100.00;75822.34;5031263;28;19924;-69
2022/10/01 06:45:51;;;;;;;;;;;;;;;-142.75;100.00;75804.63;5032569;28;20004;-69
2022/10/01 06:48:18;;;;;;;;;;;;;;;-142.75;100.00;75806.59;5032286;28;20465;-68
2022/10/01 06:50:44;;;;;;;;;;;;;;;-142.75;100.00;75812.50;5032614;28;20009;-69
2022/10/01 06:53:10;;;;;;;;;;;;;;;-142.75;100.00;75818.41;5032518;28;19967;-69
2022/10/01 06:55:36;;;;;;;;;;;;;;;-142.75;100.00;75804.63;5032398;28;20345;-68
2022/10/01 06:58:05;;;;;;;;;;;;;;;-142.75;100.00;75804.63;5031044;28;19917;-68
2022/10/01 07:00:31;;;;;;;;;;;;;;;-142.75;100.00;75806.59;5017877;28;19971;-70
2022/10/01 07:02:57;;;;;;;;;;;;;;;-142.75;100.00;75822.34;5025768;28;19921;-67
2022/10/01 07:05:26;;;;;;;;;;;;;;;-142.75;100.00;75834.16;5016051;28;19921;-68
2022/10/01 07:07:52;;;;;;;;;;;;;;;-142.75;100.00;75849.91;5015769;28;19964;-68
2022/10/01 07:10:20;;;;;;;;;;;;;;;-142.75;100.00;75853.84;5015650;28;20299;-68
2022/10/01 07:12:49;;;;;;;;;;;;;;;-142.75;100.00;75873.50;5012779;28;19917;-67
2022/10/01 07:15:15;;;;;;;;;;;;;;;-142.75;100.00;75879.41;5028756;28;19913;-68
2022/10/01 07:17:45;;;;;;;;;;;;;;;-142.75;100.00;75871.53;5026973;28;19967;-66
2022/10/01 07:20:10;;;;;;;;;;;;;;;-142.75;100.00;75855.81;5029177;28;19913;-71
2022/10/01 07:22:36;;;;;;;;;;;;;;;-142.75;100.00;75824.31;5032291;28;20063;-68
2022/10/01 07:25:01;;;;;;;;;;;;;;;-142.75;100.00;75796.75;5030794;28;20424;-69
2022/10/01 07:27:26;;;;;;;;;;;;;;;-142.75;100.00;75796.75;5030427;28;19920;-69
2022/10/01 07:29:52;;;;;;;;;;;;;;;-142.75;100.00;75759.38;5031209;28;20386;-69
2022/10/01 07:32:17;;;;;;;;;;;;;;;-142.75;100.00;75731.81;5031912;28;19913;-69
2022/10/01 07:34:42;;;;;;;;;;;;;;;-142.75;100.00;75706.22;5032078;28;19917;-70
2022/10/01 07:37:08;;;;;;;;;;;;;;;-142.75;100.00;75696.38;5031317;28;19975;-66
2022/10/01 07:39:33;;;;;;;;;;;;;;;-142.75;100.00;75674.72;5031893;28;20036;-69
2022/10/01 07:41:59;;;;;;;;;;;;;;;-142.75;100.00;75668.84;5030680;28;19913;-69
2022/10/01 07:44:28;;;;;;;;;;;;;;;-142.75;100.00;75670.81;5031609;28;20551;-66
2022/10/01 07:46:53;;;;;;;;;;;;;;;-142.75;100.00;75653.09;5030322;28;19917;-70
2022/10/01 07:49:19;;;;;;;;;;;;;;;-142.75;100.00;75633.41;5031728;28;19913;-69
2022/10/01 07:51:44;;;;;;;;;;;;;;;-142.75;100.00;75594.06;5031724;28;19913;-69
2022/10/01 07:54:09;;;;;;;;;;;;;;;-142.75;100.00;75594.06;5030406;28;19943;-68
2022/10/01 07:56:35;;;;;;;;;;;;;;;-142.75;100.00;75609.78;5031547;28;19992;-67
2022/10/01 07:59:00;;;;;;;;;;;;;;;-142.75;100.00;75641.28;5031761;28;19913;-69
2022/10/01 08:01:25;;;;;;;;;;;;;;;-142.75;100.00;75676.69;5032486;28;19978;-68
2022/10/01 08:03:51;;;;;;;;;;;;;;;-142.75;100.00;75680.63;5030422;28;20012;-69
2022/10/01 08:06:17;;;;;;;;;;;;;;;-142.75;100.00;75706.22;5030222;28;19913;-70
2022/10/01 08:08:43;;;;;;;;;;;;;;;-142.75;100.00;75727.88;5031478;28;19924;-68
2022/10/01 08:11:09;;;;;;;;;;;;;;;-142.75;100.00;75749.53;5031578;28;19912;-69
2022/10/01 08:13:35;;;;;;;;;;;;;;;-142.75;100.00;75771.16;5029674;28;19964;-68
2022/10/01 08:16:01;;;;;;;;;;;;;;;-142.75;100.00;75779.03;5030840;28;19917;-68
2022/10/01 08:18:27;;;;;;;;;;;;;;;-142.75;100.00;75794.78;5030601;28;19913;-69
2022/10/01 08:20:52;;;;;;;;;;;;;;;-142.75;100.00;75814.47;5030723;28;20007;-69
2022/10/01 08:23:17;;;;;;;;;;;;;;;-142.75;100.00;75834.16;5029357;28;19940;-67
2022/10/01 08:25:43;;;;;;;;;;;;;;;-142.75;100.00;75844.00;5028601;28;20272;-68
2022/10/01 08:28:09;;;;;;;;;;;;;;;-142.75;100.00;75840.06;5028656;28;20402;-69
2022/10/01 08:30:36;;;;;;;;;;;;;;;-142.75;100.00;75855.81;5028398;28;19917;-69
2022/10/01 08:33:02;;;;;;;;;;;;;;;-142.75;100.00;75873.50;5030818;28;20003;-68
2022/10/01 08:35:28;;;;;;;;;;;;;;;-142.75;100.00;75879.41;5030541;28;19921;-68
2022/10/01 08:37:57;;;;;;;;;;;;;;;-142.75;100.00;75891.22;5027894;28;19962;-68
2022/10/01 08:40:22;;;;;;;;;;;;;;;-142.75;100.00;75889.25;5030545;28;19967;-68
2022/10/01 08:42:51;;;;;;;;;;;;;;;-142.75;100.00;75834.16;5032314;28;19922;-68
2022/10/01 08:45:19;;;;;;;;;;;;;;;-142.75;100.00;75802.66;5034279;28;19913;-68
2022/10/01 08:48:00;;;;;;;;;;;;;;;-142.75;100.00;75779.03;5031112;28;19913;-67
2022/10/01 08:50:36;;;;;;;;;;;;;;;-142.75;100.00;75773.13;5033940;28;20387;-68
2022/10/01 08:53:04;;;;;;;;;;;;;;;-142.75;100.00;75769.19;5034921;28;19956;-68
2022/10/01 08:55:35;;;;;;;;;;;;;;;-142.75;100.00;75786.91;5034724;28;20333;-68
2022/10/01 08:58:02;;;;;;;;;;;;;;;-142.75;100.00;75812.50;5034638;28;19996;-69
2022/10/01 09:00:29;;;;;;;;;;;;;;;-142.75;100.00;75790.84;5032998;28;19925;-68
2022/10/01 09:02:57;;;;;;;;;;;;;;;-142.75;100.00;75798.72;5033374;28;20623;-68
2022/10/01 09:05:37;;;;;;;;;;;;;;;-142.75;100.00;75741.66;5034530;28;19920;-69
2022/10/01 09:08:02;;;;;;;;;;;;;;;-142.75;100.00;75700.31;5034384;28;19959;-69
2022/10/01 09:10:31;;;;;;;;;;;;;;;-142.75;100.00;75641.28;5034244;28;19952;-69
2022/10/01 09:13:03;;;;;;;;;;;;;;;-142.75;100.00;75574.38;5034473;28;19913;-69
2022/10/01 09:15:51;;;;;;;;;;;;;;;-142.75;100.00;75601.91;5034398;28;19919;-69
2022/10/01 09:18:29;;;;;;;;;;;;;;;-142.75;100.00;75625.53;5033981;28;19913;-69
2022/10/01 09:20:56;;;;;;;;;;;;;;;-142.75;100.00;75662.94;5040793;28;20263;-69
2022/10/01 09:23:29;;;;;;;;;;;;;;;-142.75;100.00;75708.19;5033947;28;19917;-70
2022/10/01 09:25:57;;;;;;;;;;;;;;;-142.75;100.00;75721.97;5034390;28;19913;-70
2022/10/01 09:28:23;;;;;;;;;;;;;;;-142.75;100.00;75751.50;5028516;28;19971;-69
2022/10/01 09:30:56;;;;;;;;;;;;;;;-142.75;100.00;75786.91;5034276;28;19913;-69
2022/10/01 09:33:24;;;;;;;;;;;;;;;-142.75;100.00;75802.66;5033283;28;19913;-69
2022/10/01 09:35:49;;;;;;;;;;;;;;;-142.75;100.00;75727.88;5034435;28;19959;-69
2022/10/01 09:38:20;;;;;;;;;;;;;;;-142.75;100.00;75662.94;5034120;28;19932;-70
2022/10/01 09:40:56;;;;;;;;;;;;;;;-142.75;100.00;75578.31;5034342;28;20344;-69
2022/10/01 09:43:22;;;;;;;;;;;;;;;-142.75;100.00;75493.69;5034310;28;20116;-69
2022/10/01 09:45:47;;;;;;;;;;;;;;;-142.75;100.00;75458.25;5034346;28;19928;-70
2022/10/01 09:48:18;;;;;;;;;;;;;;;-142.75;100.00;75446.44;5034046;28;19920;-70
2022/10/01 09:50:53;;;;;;;;;;;;;;;-142.75;100.00;75432.69;5034122;28;19916;-71
2022/10/01 09:53:21;;;;;;;;;;;;;;;-142.75;100.00;75434.66;5033493;28;19917;-70
2022/10/01 09:55:51;;;;;;;;;;;;;;;-142.75;100.00;75505.50;5034234;28;19967;-70
2022/10/01 09:58:19;;;;;;;;;;;;;;;-142.75;100.00;75448.41;5033577;28;19920;-69
2022/10/01 10:00:47;;;;;;;;;;;;;;;-142.75;100.00;75409.06;5033398;28;19924;-68
2022/10/01 10:03:20;;;;;;;;;;;;;;;-142.75;100.00;75369.69;5033241;28;19932;-67
2022/10/01 10:05:47;;;;;;;;;;;;;;;-142.75;100.00;75395.28;5048694;28;20375;-67
2022/10/01 10:08:15;;;;;;;;;;;;;;;-142.75;100.00;75338.22;5031913;28;19917;-67
2022/10/01 10:10:48;;;;;;;;;;;;;;;-142.75;100.00;75369.69;5030516;28;19917;-68
2022/10/01 10:13:16;;;;;;;;;;;;;;;-142.75;100.00;75409.06;5033558;28;19924;-70
2022/10/01 10:16:10;;;;;;;;;;;;;;;-142.75;100.00;75409.06;5032397;28;20008;-69
2022/10/01 10:18:37;;;;;;;;;;;;;;;-142.75;100.00;75353.97;5022816;28;19928;-70
2022/10/01 10:21:26;;;;;;;;;;;;;;;-142.75;100.00;75334.28;5032186;28;19916;-69
2022/10/01 10:23:53;;;;;;;;;;;;;;;-142.75;100.00;75294.94;5027673;28;19952;-69
2022/10/01 10:26:30;;;;;;;;;;;;;;;-142.75;100.00;75294.94;5033398;28;19914;-69
2022/10/01 10:28:56;;;;;;;;;;;;;;;-142.75;100.00;75324.44;5033281;28;19961;-69
2022/10/01 10:31:23;;;;;;;;;;;;;;;-142.75;100.00;75377.56;5033340;28;20366;-69
2022/10/01 10:33:50;;;;;;;;;;;;;;;-142.75;100.00;75426.78;5033476;28;19920;-69
2022/10/01 10:36:18;;;;;;;;;;;;;;;-142.75;100.00;75393.31;5033214;28;19913;-69
2022/10/01 10:38:45;;;;;;;;;;;;;;;-142.75;100.00;75348.06;5032972;28;19917;-69
2022/10/01 10:41:16;;;;;;;;;;;;;;;-142.75;100.00;75310.66;5033192;28;20382;-69
2022/10/01 10:43:43;;;;;;;;;;;;;;;-142.75;100.00;75294.94;5031822;28;19917;-69
2022/10/01 10:46:08;;;;;;;;;;;;;;;-142.75;100.00;75239.81;5033091;28;19917;-72
2022/10/01 10:48:42;;;;;;;;;;;;;;;-142.75;100.00;75206.38;5032834;28;20000;-70
2022/10/01 10:51:09;;;;;;;;;;;;;;;-142.75;100.00;75188.66;5032994;28;20529;-70
2022/10/01 10:53:42;;;;;;;;;;;;;;;-142.75;100.00;75296.88;5032944;28;19920;-69
2022/10/01 10:56:16;;;;;;;;;;;;;;;-142.75;100.00;75291.00;5032000;28;20264;-71
2022/10/01 10:58:43;;;;;;;;;;;;;;;-142.75;100.00;75285.09;5032795;28;20391;-70
2022/10/01 11:01:12;;;;;;;;;;;;;;;-142.75;100.00;75261.47;5031370;28;19917;-69
2022/10/01 11:03:49;;;;;;;;;;;;;;;-142.75;100.00;75204.41;5032596;28;19924;-70
2022/10/01 11:06:16;;;;;;;;;;;;;;;-142.75;100.00;75239.81;5031529;28;20279;-69
2022/10/01 11:08:42;;;;;;;;;;;;;;;-142.75;100.00;75194.56;5032470;28;19948;-69
2022/10/01 11:11:19;;;;;;;;;;;;;;;-142.75;100.00;75243.75;5032569;28;19957;-69
2022/10/01 11:13:51;;;;;;;;;;;;;;;-142.75;100.00;75283.13;5032647;28;19948;-70
2022/10/01 11:16:35;;;;;;;;;;;;;;;-142.75;100.00;75212.28;5032619;28;19913;-70
2022/10/01 11:19:00;;;;;;;;;;;;;;;-142.75;100.00;75216.22;5032521;28;19964;-70
2022/10/01 11:21:34;;;;;;;;;;;;;;;-142.75;100.00;75188.66;5032436;28;20359;-69
2022/10/01 11:23:59;;;;;;;;;;;;;;;-142.75;100.00;75159.16;5032534;28;20007;-70
2022/10/01 11:26:37;;;;;;;;;;;;;;;-142.75;100.00;75188.66;5030998;28;20394;-70
2022/10/01 11:29:11;;;;;;;;;;;;;;;-142.75;100.00;75228.00;5032442;28;19913;-70
2022/10/01 11:31:42;;;;;;;;;;;;;;;-142.75;100.00;75330.34;5032353;28;19975;-70
2022/10/01 11:34:11;;;;;;;;;;;;;;;-142.75;100.00;75371.66;5031115;28;19913;-69
2022/10/01 11:36:54;;;;;;;;;;;;;;;-142.75;100.00;75430.72;5031923;28;19913;-68
2022/10/01 11:39:22;;;;;;;;;;;;;;;-142.75;100.00;75517.28;5032242;28;19913;-68
2022/10/01 11:42:04;;;;;;;;;;;;;;;-142.75;100.00;75582.25;5032119;28;19920;-67
2022/10/01 11:44:33;;;;;;;;;;;;;;;-142.75;100.00;75483.84;5032197;28;20012;-69
2022/10/01 11:47:10;;;;;;;;;;;;;;;-142.75;100.00;75373.63;5031957;28;20003;-69
2022/10/01 11:49:39;;;;;;;;;;;;;;;-142.75;100.00;75348.06;5032108;28;20014;-69
2022/10/01 11:52:04;;;;;;;;;;;;;;;-142.75;100.00;75287.06;5032133;28;19913;-70
2022/10/01 11:54:33;;;;;;;;;;;;;;;-142.75;100.00;75294.94;5030857;28;19920;-69
2022/10/01 11:59:43;;;;;;;;;;;;;;;-142.75;100.00;75279.19;5032075;28;19924;-70
2022/10/01 12:02:29;;;;;;;;;;;;;;;-142.75;100.00;75316.56;5030719;28;19917;-71
2022/10/01 12:04:56;;;;;;;;;;;;;;;-142.75;100.00;75239.81;5032108;28;20004;-69
2022/10/01 12:07:28;;;;;;;;;;;;;;;-142.75;100.00;75196.53;5031573;28;20445;-67
2022/10/01 12:09:53;;;;;;;;;;;;;;;-142.75;99.95;75153.25;5031910;28;19940;-71
2022/10/01 12:12:24;;;;;;;;;;;;;;;-142.75;98.82;75206.38;5031845;28;19981;-70
2022/10/01 12:14:55;;;;;;;;;;;;;;;-142.75;100.00;75253.59;5031816;28;20004;-71
2022/10/01 12:17:24;;;;;;;;;;;;;;;-142.75;99.98;75291.00;5034864;28;19956;-69
2022/10/01 12:19:50;;;;;;;;;;;;;;;-142.75;100.00;75314.59;5035811;28;19913;-69
2022/10/01 12:22:20;;;;;;;;;;;;;;;-142.75;100.00;75298.84;5035822;28;19944;-69
2022/10/01 12:24:46;;;;;;;;;;;;;;;-142.75;99.47;75259.50;5035637;28;19913;-70